sensor_id;sensor_type;location;lat;lon;timestamp;P1;durP1;ratioP1;P2;durP2;ratioP2
77589;SDS011;66746;51.328;12.332;2023-08-06T00:01:52;5.95;;;5.03;;
77589;SDS011;66746;51.328;12.332;2023-08-06T00:04:19;7.35;;;5.00;;
77589;SDS011;66746;51.328;12.332;2023-08-06T00:06:47;5.20;;;4.10;;
77589;SDS011;66746;51.328;12.332;2023-08-06T00:09:13;6.20;;;4.82;;
77589;SDS011;66746;51.328;12.332;2023-08-06T00:11:40;6.88;;;4.45;;
77589;SDS011;66746;51.328;12.332;2023-08-06T00:14:06;5.57;;;4.15;;
77589;SDS011;66746;51.328;12.332;2023-08-06T00:16:33;6.40;;;5.80;;
77589;SDS011;66746;51.328;12.332;2023-08-06T00:18:59;8.00;;;5.20;;
77589;SDS011;66746;51.328;12.332;2023-08-06T00:21:26;6.07;;;4.75;;
77589;SDS011;66746;51.328;12.332;2023-08-06T00:23:54;6.38;;;4.97;;
77589;SDS011;66746;51.328;12.332;2023-08-06T00:26:20;5.07;;;4.55;;
77589;SDS011;66746;51.328;12.332;2023-08-06T00:28:47;7.68;;;5.90;;
77589;SDS011;66746;51.328;12.332;2023-08-06T00:31:13;8.50;;;5.43;;
77589;SDS011;66746;51.328;12.332;2023-08-06T00:33:40;6.25;;;4.47;;
77589;SDS011;66746;51.328;12.332;2023-08-06T00:36:07;6.57;;;5.93;;
77589;SDS011;66746;51.328;12.332;2023-08-06T00:38:33;6.70;;;6.00;;
77589;SDS011;66746;51.328;12.332;2023-08-06T00:41:01;6.95;;;6.25;;
77589;SDS011;66746;51.328;12.332;2023-08-06T00:43:28;7.28;;;6.57;;
77589;SDS011;66746;51.328;12.332;2023-08-06T00:45:54;6.70;;;5.85;;
77589;SDS011;66746;51.328;12.332;2023-08-06T00:48:21;6.57;;;5.07;;
77589;SDS011;66746;51.328;12.332;2023-08-06T00:50:48;8.50;;;6.07;;
77589;SDS011;66746;51.328;12.332;2023-08-06T00:53:15;6.15;;;4.90;;
77589;SDS011;66746;51.328;12.332;2023-08-06T00:55:41;7.68;;;4.50;;
77589;SDS011;66746;51.328;12.332;2023-08-06T00:58:12;6.43;;;5.82;;
77589;SDS011;66746;51.328;12.332;2023-08-06T01:00:39;7.63;;;6.57;;
77589;SDS011;66746;51.328;12.332;2023-08-06T01:03:05;7.10;;;4.82;;
77589;SDS011;66746;51.328;12.332;2023-08-06T01:05:32;7.97;;;6.30;;
77589;SDS011;66746;51.328;12.332;2023-08-06T01:08:04;5.32;;;4.47;;
77589;SDS011;66746;51.328;12.332;2023-08-06T01:10:40;8.93;;;5.43;;
77589;SDS011;66746;51.328;12.332;2023-08-06T01:13:18;6.13;;;5.63;;
77589;SDS011;66746;51.328;12.332;2023-08-06T01:15:54;6.55;;;5.43;;
77589;SDS011;66746;51.328;12.332;2023-08-06T01:18:22;8.30;;;6.20;;
77589;SDS011;66746;51.328;12.332;2023-08-06T01:20:50;7.72;;;5.50;;
77589;SDS011;66746;51.328;12.332;2023-08-06T01:23:19;5.95;;;5.13;;
77589;SDS011;66746;51.328;12.332;2023-08-06T01:25:49;7.07;;;5.30;;
77589;SDS011;66746;51.328;12.332;2023-08-06T01:28:22;7.68;;;5.63;;
77589;SDS011;66746;51.328;12.332;2023-08-06T01:30:59;5.78;;;5.20;;
77589;SDS011;66746;51.328;12.332;2023-08-06T01:33:30;6.53;;;4.53;;
77589;SDS011;66746;51.328;12.332;2023-08-06T01:36:01;11.80;;;7.63;;
77589;SDS011;66746;51.328;12.332;2023-08-06T01:38:30;8.02;;;5.30;;
77589;SDS011;66746;51.328;12.332;2023-08-06T01:40:57;6.57;;;5.07;;
77589;SDS011;66746;51.328;12.332;2023-08-06T01:43:24;6.10;;;5.47;;
77589;SDS011;66746;51.328;12.332;2023-08-06T01:45:50;6.70;;;5.63;;
77589;SDS011;66746;51.328;12.332;2023-08-06T01:48:17;6.85;;;4.95;;
77589;SDS011;66746;51.328;12.332;2023-08-06T01:50:43;8.75;;;5.90;;
77589;SDS011;66746;51.328;12.332;2023-08-06T01:53:11;8.10;;;4.38;;
77589;SDS011;66746;51.328;12.332;2023-08-06T01:55:38;8.35;;;5.32;;
77589;SDS011;66746;51.328;12.332;2023-08-06T01:58:04;5.93;;;4.72;;
77589;SDS011;66746;51.328;12.332;2023-08-06T02:00:31;5.40;;;4.88;;
77589;SDS011;66746;51.328;12.332;2023-08-06T02:02:57;7.15;;;5.35;;
77589;SDS011;66746;51.328;12.332;2023-08-06T02:05:24;9.80;;;5.55;;
77589;SDS011;66746;51.328;12.332;2023-08-06T02:07:50;8.43;;;5.18;;
77589;SDS011;66746;51.328;12.332;2023-08-06T02:10:19;6.30;;;5.07;;
77589;SDS011;66746;51.328;12.332;2023-08-06T02:12:45;6.30;;;4.82;;
77589;SDS011;66746;51.328;12.332;2023-08-06T02:15:12;8.27;;;6.40;;
77589;SDS011;66746;51.328;12.332;2023-08-06T02:17:39;7.45;;;5.20;;
77589;SDS011;66746;51.328;12.332;2023-08-06T02:20:06;7.68;;;6.43;;
77589;SDS011;66746;51.328;12.332;2023-08-06T02:22:33;6.00;;;5.40;;
77589;SDS011;66746;51.328;12.332;2023-08-06T02:25:00;6.03;;;5.38;;
77589;SDS011;66746;51.328;12.332;2023-08-06T02:27:28;8.40;;;6.65;;
77589;SDS011;66746;51.328;12.332;2023-08-06T02:29:55;7.68;;;6.18;;
77589;SDS011;66746;51.328;12.332;2023-08-06T02:32:21;6.60;;;5.38;;
77589;SDS011;66746;51.328;12.332;2023-08-06T02:34:48;7.32;;;5.85;;
77589;SDS011;66746;51.328;12.332;2023-08-06T02:37:14;7.03;;;5.13;;
77589;SDS011;66746;51.328;12.332;2023-08-06T02:39:41;7.03;;;6.25;;
77589;SDS011;66746;51.328;12.332;2023-08-06T02:42:08;7.32;;;5.75;;
77589;SDS011;66746;51.328;12.332;2023-08-06T02:44:36;11.65;;;5.68;;
77589;SDS011;66746;51.328;12.332;2023-08-06T02:47:04;6.88;;;5.90;;
77589;SDS011;66746;51.328;12.332;2023-08-06T02:49:31;8.38;;;7.57;;
77589;SDS011;66746;51.328;12.332;2023-08-06T02:51:57;8.23;;;5.32;;
77589;SDS011;66746;51.328;12.332;2023-08-06T02:54:24;8.85;;;7.40;;
77589;SDS011;66746;51.328;12.332;2023-08-06T02:56:50;7.15;;;6.45;;
77589;SDS011;66746;51.328;12.332;2023-08-06T02:59:24;8.52;;;6.90;;
77589;SDS011;66746;51.328;12.332;2023-08-06T03:02:11;8.45;;;7.07;;
77589;SDS011;66746;51.328;12.332;2023-08-06T03:05:07;7.35;;;5.20;;
77589;SDS011;66746;51.328;12.332;2023-08-06T03:07:40;7.35;;;6.05;;
77589;SDS011;66746;51.328;12.332;2023-08-06T03:10:13;8.15;;;7.07;;
77589;SDS011;66746;51.328;12.332;2023-08-06T03:12:41;7.85;;;6.22;;
77589;SDS011;66746;51.328;12.332;2023-08-06T03:15:08;7.50;;;6.18;;
77589;SDS011;66746;51.328;12.332;2023-08-06T03:17:37;8.50;;;7.55;;
77589;SDS011;66746;51.328;12.332;2023-08-06T03:20:05;10.20;;;7.50;;
77589;SDS011;66746;51.328;12.332;2023-08-06T03:22:33;8.27;;;7.47;;
77589;SDS011;66746;51.328;12.332;2023-08-06T03:25:00;7.85;;;6.70;;
77589;SDS011;66746;51.328;12.332;2023-08-06T03:27:27;7.30;;;5.57;;
77589;SDS011;66746;51.328;12.332;2023-08-06T03:29:54;9.63;;;6.72;;
77589;SDS011;66746;51.328;12.332;2023-08-06T03:32:22;9.68;;;7.38;;
77589;SDS011;66746;51.328;12.332;2023-08-06T03:34:51;9.10;;;6.57;;
77589;SDS011;66746;51.328;12.332;2023-08-06T03:37:19;8.45;;;6.03;;
77589;SDS011;66746;51.328;12.332;2023-08-06T03:39:46;9.45;;;6.38;;
77589;SDS011;66746;51.328;12.332;2023-08-06T03:42:13;10.40;;;8.07;;
77589;SDS011;66746;51.328;12.332;2023-08-06T03:44:39;9.10;;;7.55;;
77589;SDS011;66746;51.328;12.332;2023-08-06T03:47:08;8.02;;;6.07;;
77589;SDS011;66746;51.328;12.332;2023-08-06T03:49:35;7.13;;;6.25;;
77589;SDS011;66746;51.328;12.332;2023-08-06T03:52:04;7.72;;;5.65;;
77589;SDS011;66746;51.328;12.332;2023-08-06T03:54:31;9.77;;;8.63;;
77589;SDS011;66746;51.328;12.332;2023-08-06T03:56:58;13.57;;;6.38;;
77589;SDS011;66746;51.328;12.332;2023-08-06T03:59:24;7.80;;;6.93;;
77589;SDS011;66746;51.328;12.332;2023-08-06T04:01:51;9.88;;;6.88;;
77589;SDS011;66746;51.328;12.332;2023-08-06T04:04:18;7.32;;;6.63;;
77589;SDS011;66746;51.328;12.332;2023-08-06T04:06:45;8.85;;;7.95;;
77589;SDS011;66746;51.328;12.332;2023-08-06T04:09:14;8.40;;;7.50;;
77589;SDS011;66746;51.328;12.332;2023-08-06T04:11:40;10.27;;;8.52;;
77589;SDS011;66746;51.328;12.332;2023-08-06T04:14:08;9.48;;;8.55;;
77589;SDS011;66746;51.328;12.332;2023-08-06T04:16:34;9.73;;;7.50;;
77589;SDS011;66746;51.328;12.332;2023-08-06T04:19:01;7.93;;;6.20;;
77589;SDS011;66746;51.328;12.332;2023-08-06T04:21:27;8.43;;;7.63;;
77589;SDS011;66746;51.328;12.332;2023-08-06T04:23:55;7.38;;;6.65;;
77589;SDS011;66746;51.328;12.332;2023-08-06T04:26:23;7.03;;;6.00;;
77589;SDS011;66746;51.328;12.332;2023-08-06T04:28:50;6.45;;;5.32;;
77589;SDS011;66746;51.328;12.332;2023-08-06T04:31:16;6.63;;;5.38;;
77589;SDS011;66746;51.328;12.332;2023-08-06T04:33:44;7.95;;;6.22;;
77589;SDS011;66746;51.328;12.332;2023-08-06T04:36:13;10.95;;;5.72;;
77589;SDS011;66746;51.328;12.332;2023-08-06T04:38:39;6.30;;;5.45;;
77589;SDS011;66746;51.328;12.332;2023-08-06T04:41:06;5.65;;;5.00;;
77589;SDS011;66746;51.328;12.332;2023-08-06T04:43:35;6.82;;;5.57;;
77589;SDS011;66746;51.328;12.332;2023-08-06T04:46:02;8.85;;;4.88;;
77589;SDS011;66746;51.328;12.332;2023-08-06T04:48:28;4.72;;;4.13;;
77589;SDS011;66746;51.328;12.332;2023-08-06T04:50:55;6.07;;;4.32;;
77589;SDS011;66746;51.328;12.332;2023-08-06T04:53:24;5.13;;;4.65;;
77589;SDS011;66746;51.328;12.332;2023-08-06T04:55:51;5.32;;;4.82;;
77589;SDS011;66746;51.328;12.332;2023-08-06T04:58:18;6.78;;;3.85;;
77589;SDS011;66746;51.328;12.332;2023-08-06T05:00:46;5.93;;;3.97;;
77589;SDS011;66746;51.328;12.332;2023-08-06T05:03:12;5.20;;;4.70;;
77589;SDS011;66746;51.328;12.332;2023-08-06T05:05:39;4.75;;;4.25;;
77589;SDS011;66746;51.328;12.332;2023-08-06T05:08:06;6.38;;;3.72;;
77589;SDS011;66746;51.328;12.332;2023-08-06T05:10:32;6.40;;;4.55;;
77589;SDS011;66746;51.328;12.332;2023-08-06T05:12:59;5.53;;;4.07;;
77589;SDS011;66746;51.328;12.332;2023-08-06T05:15:26;4.53;;;4.13;;
77589;SDS011;66746;51.328;12.332;2023-08-06T05:17:53;4.40;;;3.72;;
77589;SDS011;66746;51.328;12.332;2023-08-06T05:20:20;6.13;;;5.53;;
77589;SDS011;66746;51.328;12.332;2023-08-06T05:22:46;5.13;;;3.67;;
77589;SDS011;66746;51.328;12.332;2023-08-06T05:25:13;6.18;;;5.60;;
77589;SDS011;66746;51.328;12.332;2023-08-06T05:27:41;5.35;;;4.85;;
77589;SDS011;66746;51.328;12.332;2023-08-06T05:30:08;4.70;;;3.97;;
77589;SDS011;66746;51.328;12.332;2023-08-06T05:32:35;7.38;;;5.03;;
77589;SDS011;66746;51.328;12.332;2023-08-06T05:35:06;4.82;;;4.13;;
77589;SDS011;66746;51.328;12.332;2023-08-06T05:37:33;4.28;;;3.30;;
77589;SDS011;66746;51.328;12.332;2023-08-06T05:40:00;5.10;;;3.72;;
77589;SDS011;66746;51.328;12.332;2023-08-06T05:42:29;5.38;;;4.00;;
77589;SDS011;66746;51.328;12.332;2023-08-06T05:44:55;4.97;;;4.50;;
77589;SDS011;66746;51.328;12.332;2023-08-06T05:47:22;5.30;;;4.85;;
77589;SDS011;66746;51.328;12.332;2023-08-06T05:49:51;4.13;;;3.05;;
77589;SDS011;66746;51.328;12.332;2023-08-06T05:52:20;3.85;;;3.20;;
77589;SDS011;66746;51.328;12.332;2023-08-06T05:54:47;3.90;;;2.53;;
77589;SDS011;66746;51.328;12.332;2023-08-06T05:57:14;2.90;;;2.50;;
77589;SDS011;66746;51.328;12.332;2023-08-06T05:59:40;2.95;;;2.60;;
77589;SDS011;66746;51.328;12.332;2023-08-06T06:02:07;5.28;;;2.17;;
77589;SDS011;66746;51.328;12.332;2023-08-06T06:04:34;4.03;;;3.67;;
77589;SDS011;66746;51.328;12.332;2023-08-06T06:07:00;3.20;;;2.30;;
77589;SDS011;66746;51.328;12.332;2023-08-06T06:09:28;2.72;;;2.17;;
77589;SDS011;66746;51.328;12.332;2023-08-06T06:11:57;3.60;;;3.30;;
77589;SDS011;66746;51.328;12.332;2023-08-06T06:14:24;4.03;;;3.33;;
77589;SDS011;66746;51.328;12.332;2023-08-06T06:16:50;2.42;;;1.95;;
77589;SDS011;66746;51.328;12.332;2023-08-06T06:19:17;3.78;;;3.47;;
77589;SDS011;66746;51.328;12.332;2023-08-06T06:21:44;3.63;;;3.08;;
77589;SDS011;66746;51.328;12.332;2023-08-06T06:24:10;3.70;;;3.20;;
77589;SDS011;66746;51.328;12.332;2023-08-06T06:26:38;4.57;;;3.03;;
77589;SDS011;66746;51.328;12.332;2023-08-06T06:29:05;2.92;;;2.13;;
77589;SDS011;66746;51.328;12.332;2023-08-06T06:31:33;3.83;;;2.35;;
77589;SDS011;66746;51.328;12.332;2023-08-06T06:34:00;2.67;;;2.47;;
77589;SDS011;66746;51.328;12.332;2023-08-06T06:36:27;3.97;;;2.08;;
77589;SDS011;66746;51.328;12.332;2023-08-06T06:38:53;3.25;;;2.60;;
77589;SDS011;66746;51.328;12.332;2023-08-06T06:41:20;3.25;;;2.90;;
77589;SDS011;66746;51.328;12.332;2023-08-06T06:43:48;3.92;;;2.13;;
77589;SDS011;66746;51.328;12.332;2023-08-06T06:46:14;2.97;;;2.67;;
77589;SDS011;66746;51.328;12.332;2023-08-06T06:48:41;2.15;;;1.85;;
77589;SDS011;66746;51.328;12.332;2023-08-06T06:51:08;4.97;;;2.28;;
77589;SDS011;66746;51.328;12.332;2023-08-06T06:53:34;3.10;;;2.80;;
77589;SDS011;66746;51.328;12.332;2023-08-06T06:56:04;3.42;;;2.70;;
77589;SDS011;66746;51.328;12.332;2023-08-06T06:58:31;4.38;;;3.97;;
77589;SDS011;66746;51.328;12.332;2023-08-06T07:00:59;3.35;;;3.05;;
77589;SDS011;66746;51.328;12.332;2023-08-06T07:03:26;3.55;;;3.10;;
77589;SDS011;66746;51.328;12.332;2023-08-06T07:05:56;3.42;;;3.13;;
77589;SDS011;66746;51.328;12.332;2023-08-06T07:08:23;4.38;;;4.07;;
77589;SDS011;66746;51.328;12.332;2023-08-06T07:10:50;3.30;;;2.78;;
77589;SDS011;66746;51.328;12.332;2023-08-06T07:13:16;3.10;;;2.83;;
77589;SDS011;66746;51.328;12.332;2023-08-06T07:15:45;2.78;;;2.58;;
77589;SDS011;66746;51.328;12.332;2023-08-06T07:18:13;2.72;;;2.50;;
77589;SDS011;66746;51.328;12.332;2023-08-06T07:20:40;2.83;;;2.35;;
77589;SDS011;66746;51.328;12.332;2023-08-06T07:23:06;2.30;;;2.10;;
77589;SDS011;66746;51.328;12.332;2023-08-06T07:25:34;3.42;;;2.85;;
77589;SDS011;66746;51.328;12.332;2023-08-06T07:28:00;4.35;;;2.80;;
77589;SDS011;66746;51.328;12.332;2023-08-06T07:30:27;4.07;;;3.25;;
77589;SDS011;66746;51.328;12.332;2023-08-06T07:32:54;3.03;;;2.60;;
77589;SDS011;66746;51.328;12.332;2023-08-06T07:35:28;4.10;;;3.35;;
77589;SDS011;66746;51.328;12.332;2023-08-06T07:37:56;3.35;;;2.42;;
77589;SDS011;66746;51.328;12.332;2023-08-06T07:40:23;3.00;;;2.33;;
77589;SDS011;66746;51.328;12.332;2023-08-06T07:42:49;4.32;;;2.88;;
77589;SDS011;66746;51.328;12.332;2023-08-06T07:45:19;3.63;;;2.63;;
77589;SDS011;66746;51.328;12.332;2023-08-06T07:47:45;2.17;;;1.88;;
77589;SDS011;66746;51.328;12.332;2023-08-06T07:50:15;2.90;;;2.38;;
77589;SDS011;66746;51.328;12.332;2023-08-06T07:52:46;3.97;;;2.53;;
77589;SDS011;66746;51.328;12.332;2023-08-06T07:55:19;2.70;;;2.13;;
77589;SDS011;66746;51.328;12.332;2023-08-06T07:57:45;2.70;;;2.35;;
77589;SDS011;66746;51.328;12.332;2023-08-06T08:00:15;3.00;;;2.80;;
77589;SDS011;66746;51.328;12.332;2023-08-06T08:02:42;2.25;;;2.05;;
77589;SDS011;66746;51.328;12.332;2023-08-06T08:05:11;2.65;;;2.42;;
77589;SDS011;66746;51.328;12.332;2023-08-06T08:07:42;2.58;;;2.22;;
77589;SDS011;66746;51.328;12.332;2023-08-06T08:10:10;2.78;;;2.05;;
77589;SDS011;66746;51.328;12.332;2023-08-06T08:12:41;2.47;;;2.28;;
77589;SDS011;66746;51.328;12.332;2023-08-06T08:18:54;3.25;;;2.78;;
77589;SDS011;66746;51.328;12.332;2023-08-06T08:21:28;2.80;;;2.25;;
77589;SDS011;66746;51.328;12.332;2023-08-06T08:23:57;3.05;;;2.60;;
77589;SDS011;66746;51.328;12.332;2023-08-06T08:26:35;3.75;;;3.33;;
77589;SDS011;66746;51.328;12.332;2023-08-06T08:29:04;2.95;;;2.35;;
77589;SDS011;66746;51.328;12.332;2023-08-06T08:31:49;3.85;;;1.75;;
77589;SDS011;66746;51.328;12.332;2023-08-06T08:34:21;3.60;;;3.30;;
77589;SDS011;66746;51.328;12.332;2023-08-06T08:36:59;2.83;;;2.63;;
77589;SDS011;66746;51.328;12.332;2023-08-06T08:39:27;4.00;;;3.60;;
77589;SDS011;66746;51.328;12.332;2023-08-06T08:41:55;3.08;;;1.85;;
77589;SDS011;66746;51.328;12.332;2023-08-06T08:44:34;2.45;;;2.15;;
77589;SDS011;66746;51.328;12.332;2023-08-06T08:47:08;2.92;;;2.72;;
77589;SDS011;66746;51.328;12.332;2023-08-06T08:49:37;3.47;;;3.03;;
77589;SDS011;66746;51.328;12.332;2023-08-06T08:52:11;2.22;;;1.85;;
77589;SDS011;66746;51.328;12.332;2023-08-06T08:54:46;3.08;;;2.53;;
77589;SDS011;66746;51.328;12.332;2023-08-06T08:57:26;3.75;;;3.33;;
77589;SDS011;66746;51.328;12.332;2023-08-06T09:00:07;3.72;;;2.17;;
77589;SDS011;66746;51.328;12.332;2023-08-06T09:02:34;3.33;;;3.03;;
77589;SDS011;66746;51.328;12.332;2023-08-06T09:05:14;2.78;;;2.58;;
77589;SDS011;66746;51.328;12.332;2023-08-06T09:07:49;4.15;;;3.35;;
77589;SDS011;66746;51.328;12.332;2023-08-06T09:10:25;3.38;;;2.70;;
77589;SDS011;66746;51.328;12.332;2023-08-06T09:13:00;6.03;;;4.13;;
77589;SDS011;66746;51.328;12.332;2023-08-06T09:15:33;3.58;;;3.25;;
77589;SDS011;66746;51.328;12.332;2023-08-06T09:18:09;3.40;;;3.05;;
77589;SDS011;66746;51.328;12.332;2023-08-06T09:20:40;3.25;;;2.95;;
77589;SDS011;66746;51.328;12.332;2023-08-06T09:23:07;3.53;;;2.88;;
77589;SDS011;66746;51.328;12.332;2023-08-06T09:25:37;3.80;;;3.50;;
77589;SDS011;66746;51.328;12.332;2023-08-06T09:28:13;2.88;;;2.15;;
77589;SDS011;66746;51.328;12.332;2023-08-06T09:30:43;3.58;;;3.03;;
77589;SDS011;66746;51.328;12.332;2023-08-06T09:33:14;2.30;;;2.08;;
77589;SDS011;66746;51.328;12.332;2023-08-06T09:35:51;3.22;;;2.45;;
77589;SDS011;66746;51.328;12.332;2023-08-06T09:38:18;3.05;;;2.83;;
77589;SDS011;66746;51.328;12.332;2023-08-06T09:40:48;2.78;;;2.58;;
77589;SDS011;66746;51.328;12.332;2023-08-06T09:43:20;3.55;;;2.17;;
77589;SDS011;66746;51.328;12.332;2023-08-06T09:45:57;3.33;;;3.03;;
77589;SDS011;66746;51.328;12.332;2023-08-06T09:48:27;2.67;;;2.47;;
77589;SDS011;66746;51.328;12.332;2023-08-06T09:51:01;3.95;;;3.30;;
77589;SDS011;66746;51.328;12.332;2023-08-06T09:53:40;4.15;;;2.72;;
77589;SDS011;66746;51.328;12.332;2023-08-06T09:56:11;3.70;;;2.35;;
77589;SDS011;66746;51.328;12.332;2023-08-06T09:58:53;3.20;;;2.90;;
77589;SDS011;66746;51.328;12.332;2023-08-06T10:01:42;2.78;;;2.05;;
77589;SDS011;66746;51.328;12.332;2023-08-06T10:04:29;2.60;;;2.40;;
77589;SDS011;66746;51.328;12.332;2023-08-06T10:07:15;3.25;;;2.90;;
77589;SDS011;66746;51.328;12.332;2023-08-06T10:09:48;3.20;;;2.90;;
77589;SDS011;66746;51.328;12.332;2023-08-06T10:12:21;3.40;;;3.10;;
77589;SDS011;66746;51.328;12.332;2023-08-06T10:14:55;3.38;;;2.90;;
77589;SDS011;66746;51.328;12.332;2023-08-06T10:17:26;2.83;;;1.73;;
77589;SDS011;66746;51.328;12.332;2023-08-06T10:20:17;2.85;;;2.28;;
77589;SDS011;66746;51.328;12.332;2023-08-06T10:23:06;3.50;;;3.20;;
77589;SDS011;66746;51.328;12.332;2023-08-06T10:25:39;3.03;;;2.13;;
77589;SDS011;66746;51.328;12.332;2023-08-06T10:28:38;3.42;;;3.13;;
77589;SDS011;66746;51.328;12.332;2023-08-06T10:31:13;3.70;;;1.85;;
77589;SDS011;66746;51.328;12.332;2023-08-06T10:33:41;3.38;;;3.08;;
77589;SDS011;66746;51.328;12.332;2023-08-06T10:36:16;2.78;;;2.38;;
77589;SDS011;66746;51.328;12.332;2023-08-06T10:38:45;3.13;;;2.25;;
77589;SDS011;66746;51.328;12.332;2023-08-06T10:41:22;3.22;;;2.63;;
77589;SDS011;66746;51.328;12.332;2023-08-06T10:44:05;2.53;;;2.17;;
77589;SDS011;66746;51.328;12.332;2023-08-06T10:46:40;3.58;;;2.65;;
77589;SDS011;66746;51.328;12.332;2023-08-06T10:49:10;3.58;;;3.13;;
77589;SDS011;66746;51.328;12.332;2023-08-06T10:51:54;3.50;;;2.22;;
77589;SDS011;66746;51.328;12.332;2023-08-06T10:54:33;2.30;;;1.92;;
77589;SDS011;66746;51.328;12.332;2023-08-06T10:57:06;3.42;;;3.13;;
77589;SDS011;66746;51.328;12.332;2023-08-06T10:59:38;3.88;;;3.22;;
77589;SDS011;66746;51.328;12.332;2023-08-06T11:02:13;3.47;;;2.83;;
77589;SDS011;66746;51.328;12.332;2023-08-06T11:04:40;3.72;;;3.45;;
77589;SDS011;66746;51.328;12.332;2023-08-06T11:07:09;4.20;;;3.83;;
77589;SDS011;66746;51.328;12.332;2023-08-06T11:09:38;4.55;;;4.15;;
77589;SDS011;66746;51.328;12.332;2023-08-06T11:12:19;4.03;;;3.67;;
77589;SDS011;66746;51.328;12.332;2023-08-06T11:14:51;3.20;;;2.92;;
77589;SDS011;66746;51.328;12.332;2023-08-06T11:17:23;5.22;;;3.28;;
77589;SDS011;66746;51.328;12.332;2023-08-06T11:19:59;3.63;;;3.35;;
77589;SDS011;66746;51.328;12.332;2023-08-06T11:22:29;2.85;;;2.65;;
77589;SDS011;66746;51.328;12.332;2023-08-06T11:25:08;3.58;;;2.33;;
77589;SDS011;66746;51.328;12.332;2023-08-06T11:27:43;3.92;;;3.55;;
77589;SDS011;66746;51.328;12.332;2023-08-06T11:30:21;3.53;;;2.65;;
77589;SDS011;66746;51.328;12.332;2023-08-06T11:33:08;4.22;;;3.90;;
77589;SDS011;66746;51.328;12.332;2023-08-06T11:35:45;3.97;;;3.60;;
77589;SDS011;66746;51.328;12.332;2023-08-06T11:38:24;4.35;;;3.30;;
77589;SDS011;66746;51.328;12.332;2023-08-06T11:41:00;2.95;;;2.42;;
77589;SDS011;66746;51.328;12.332;2023-08-06T11:43:30;2.65;;;2.38;;
77589;SDS011;66746;51.328;12.332;2023-08-06T11:48:56;3.13;;;2.00;;
77589;SDS011;66746;51.328;12.332;2023-08-06T11:51:28;3.38;;;2.83;;
77589;SDS011;66746;51.328;12.332;2023-08-06T11:54:03;2.22;;;1.95;;
77589;SDS011;66746;51.328;12.332;2023-08-06T11:56:38;2.50;;;2.30;;
77589;SDS011;66746;51.328;12.332;2023-08-06T11:59:07;3.00;;;2.35;;
77589;SDS011;66746;51.328;12.332;2023-08-06T12:01:40;3.25;;;2.45;;
77589;SDS011;66746;51.328;12.332;2023-08-06T12:07:04;3.00;;;2.42;;
77589;SDS011;66746;51.328;12.332;2023-08-06T12:09:50;5.70;;;2.85;;
77589;SDS011;66746;51.328;12.332;2023-08-06T12:12:23;2.42;;;2.03;;
77589;SDS011;66746;51.328;12.332;2023-08-06T12:14:54;3.00;;;1.75;;
77589;SDS011;66746;51.328;12.332;2023-08-06T12:17:27;2.33;;;1.58;;
77589;SDS011;66746;51.328;12.332;2023-08-06T12:20:06;2.15;;;2.00;;
77589;SDS011;66746;51.328;12.332;2023-08-06T12:22:39;2.47;;;2.13;;
77589;SDS011;66746;51.328;12.332;2023-08-06T12:25:14;2.13;;;2.00;;
77589;SDS011;66746;51.328;12.332;2023-08-06T12:27:48;2.08;;;1.88;;
77589;SDS011;66746;51.328;12.332;2023-08-06T12:30:29;2.47;;;2.10;;
77589;SDS011;66746;51.328;12.332;2023-08-06T12:35:58;2.90;;;2.03;;
77589;SDS011;66746;51.328;12.332;2023-08-06T12:38:29;3.35;;;2.22;;
77589;SDS011;66746;51.328;12.332;2023-08-06T12:40:58;2.75;;;1.80;;
77589;SDS011;66746;51.328;12.332;2023-08-06T12:43:25;1.60;;;1.50;;
77589;SDS011;66746;51.328;12.332;2023-08-06T12:45:55;2.92;;;2.33;;
77589;SDS011;66746;51.328;12.332;2023-08-06T12:48:26;1.80;;;1.60;;
77589;SDS011;66746;51.328;12.332;2023-08-06T12:51:06;2.30;;;1.98;;
77589;SDS011;66746;51.328;12.332;2023-08-06T12:53:33;4.05;;;2.13;;
77589;SDS011;66746;51.328;12.332;2023-08-06T12:56:03;2.05;;;1.73;;
77589;SDS011;66746;51.328;12.332;2023-08-06T12:58:33;2.05;;;1.85;;
77589;SDS011;66746;51.328;12.332;2023-08-06T13:01:16;2.97;;;2.05;;
77589;SDS011;66746;51.328;12.332;2023-08-06T13:03:52;2.72;;;2.53;;
77589;SDS011;66746;51.328;12.332;2023-08-06T13:06:49;2.50;;;2.17;;
77589;SDS011;66746;51.328;12.332;2023-08-06T13:09:22;2.55;;;2.15;;
77589;SDS011;66746;51.328;12.332;2023-08-06T13:11:54;2.28;;;1.58;;
77589;SDS011;66746;51.328;12.332;2023-08-06T13:14:26;2.53;;;1.95;;
77589;SDS011;66746;51.328;12.332;2023-08-06T13:16:55;3.00;;;2.42;;
77589;SDS011;66746;51.328;12.332;2023-08-06T13:19:27;2.58;;;2.38;;
77589;SDS011;66746;51.328;12.332;2023-08-06T13:22:04;3.58;;;1.40;;
77589;SDS011;66746;51.328;12.332;2023-08-06T13:24:33;3.33;;;2.55;;
77589;SDS011;66746;51.328;12.332;2023-08-06T13:27:12;2.45;;;2.20;;
77589;SDS011;66746;51.328;12.332;2023-08-06T13:29:53;2.58;;;2.38;;
77589;SDS011;66746;51.328;12.332;2023-08-06T13:32:30;2.92;;;2.50;;
77589;SDS011;66746;51.328;12.332;2023-08-06T13:35:01;2.10;;;1.83;;
77589;SDS011;66746;51.328;12.332;2023-08-06T13:37:30;1.73;;;1.45;;
77589;SDS011;66746;51.328;12.332;2023-08-06T13:40:01;2.72;;;2.15;;
77589;SDS011;66746;51.328;12.332;2023-08-06T13:42:32;2.42;;;2.22;;
77589;SDS011;66746;51.328;12.332;2023-08-06T13:44:58;1.95;;;1.85;;
77589;SDS011;66746;51.328;12.332;2023-08-06T13:47:36;1.90;;;1.73;;
77589;SDS011;66746;51.328;12.332;2023-08-06T15:40:29;1.80;;;1.20;;
77589;SDS011;66746;51.328;12.332;2023-08-06T15:51:47;3.22;;;2.28;;
77589;SDS011;66746;51.328;12.332;2023-08-06T15:56:31;2.13;;;1.77;;
77589;SDS011;66746;51.328;12.332;2023-08-06T15:58:34;2.95;;;2.58;;
77589;SDS011;66746;51.328;12.332;2023-08-06T16:05:53;3.47;;;3.13;;
77589;SDS011;66746;51.328;12.332;2023-08-06T16:09:04;3.90;;;3.50;;
77589;SDS011;66746;51.328;12.332;2023-08-06T16:15:13;2.95;;;2.65;;
77589;SDS011;66746;51.328;12.332;2023-08-06T16:26:11;3.40;;;3.10;;
77589;SDS011;66746;51.328;12.332;2023-08-06T16:29:20;4.18;;;3.15;;
77589;SDS011;66746;51.328;12.332;2023-08-06T16:32:25;3.95;;;3.53;;
77589;SDS011;66746;51.328;12.332;2023-08-06T16:35:00;4.07;;;2.88;;
77589;SDS011;66746;51.328;12.332;2023-08-06T16:49:08;4.50;;;2.97;;
77589;SDS011;66746;51.328;12.332;2023-08-06T16:52:24;3.08;;;2.67;;
77589;SDS011;66746;51.328;12.332;2023-08-06T16:55:21;6.10;;;2.78;;
77589;SDS011;66746;51.328;12.332;2023-08-06T16:57:52;4.32;;;3.22;;
77589;SDS011;66746;51.328;12.332;2023-08-06T17:00:59;2.85;;;2.50;;
77589;SDS011;66746;51.328;12.332;2023-08-06T17:07:22;4.38;;;2.17;;
77589;SDS011;66746;51.328;12.332;2023-08-06T17:17:25;3.00;;;1.73;;
77589;SDS011;66746;51.328;12.332;2023-08-06T17:20:00;4.00;;;3.63;;
77589;SDS011;66746;51.328;12.332;2023-08-06T17:23:02;4.00;;;2.53;;
77589;SDS011;66746;51.328;12.332;2023-08-06T17:26:16;2.63;;;2.13;;
77589;SDS011;66746;51.328;12.332;2023-08-06T17:29:29;5.53;;;3.45;;
77589;SDS011;66746;51.328;12.332;2023-08-06T17:43:51;8.13;;;3.40;;
77589;SDS011;66746;51.328;12.332;2023-08-06T17:46:46;7.90;;;3.17;;
77589;SDS011;66746;51.328;12.332;2023-08-06T19:07:02;4.30;;;3.30;;
77589;SDS011;66746;51.328;12.332;2023-08-06T19:09:34;4.70;;;4.05;;
77589;SDS011;66746;51.328;12.332;2023-08-06T19:12:04;4.15;;;3.75;;
77589;SDS011;66746;51.328;12.332;2023-08-06T19:17:34;4.25;;;3.50;;
77589;SDS011;66746;51.328;12.332;2023-08-06T19:20:11;5.75;;;3.95;;
77589;SDS011;66746;51.328;12.332;2023-08-06T19:22:40;5.45;;;3.42;;
77589;SDS011;66746;51.328;12.332;2023-08-06T19:25:29;5.85;;;3.80;;